Terminal Aerodrome Forecast
Issued by NWS

Home | Current Version | Previous Version | Text Only | Print | Product List | Glossary On
Versions: 1 2 3 4 5 6 7 8 9 10 11 12 13
000
FTUS44 KEPZ 181700
TAFTCS
TAF
KTCS 181740Z 1818/1918 18010KT P6SM FEW120 OVC250
     FM182000 22017G27KT P6SM SCT100 OVC250
     FM190100 14010KT P6SM VCTS SCT070CB BKN100 OVC200
      TEMPO 1901/1905 VRB27G40KT 6SM -TSRA BKN060CB OVC100
     FM190600 27005KT P6SM VCSH SCT050 BKN080 OVC200=

USA.gov is the U.S. government's official web portal to all federal, state and local government web resources and services.